sensor_id;sensor_type;location;lat;lon;timestamp;temperature;humidity
38131;DHT22;23947;51.894;4.622;2022-08-21T00:01:50;17.40;1.00
38131;DHT22;23947;51.894;4.622;2022-08-21T00:04:16;17.40;1.00
38131;DHT22;23947;51.894;4.622;2022-08-21T00:06:42;17.40;1.00
38131;DHT22;23947;51.894;4.622;2022-08-21T00:09:08;17.30;1.00
38131;DHT22;23947;51.894;4.622;2022-08-21T00:11:35;17.40;1.00
38131;DHT22;23947;51.894;4.622;2022-08-21T00:14:02;17.30;1.00
38131;DHT22;23947;51.894;4.622;2022-08-21T00:16:29;17.30;1.00
38131;DHT22;23947;51.894;4.622;2022-08-21T00:18:54;17.30;1.00
38131;DHT22;23947;51.894;4.622;2022-08-21T00:21:20;17.30;1.00
38131;DHT22;23947;51.894;4.622;2022-08-21T00:23:47;17.20;1.00
38131;DHT22;23947;51.894;4.622;2022-08-21T00:26:13;17.20;1.00
38131;DHT22;23947;51.894;4.622;2022-08-21T00:28:38;17.10;1.00
38131;DHT22;23947;51.894;4.622;2022-08-21T00:31:04;17.10;1.00
38131;DHT22;23947;51.894;4.622;2022-08-21T00:33:30;17.00;1.00
38131;DHT22;23947;51.894;4.622;2022-08-21T00:35:57;17.10;1.00
38131;DHT22;23947;51.894;4.622;2022-08-21T00:38:23;17.10;1.00
38131;DHT22;23947;51.894;4.622;2022-08-21T00:40:56;17.00;1.00
38131;DHT22;23947;51.894;4.622;2022-08-21T00:43:28;17.10;1.00
38131;DHT22;23947;51.894;4.622;2022-08-21T00:45:56;17.10;1.00
38131;DHT22;23947;51.894;4.622;2022-08-21T00:48:22;17.10;1.00
38131;DHT22;23947;51.894;4.622;2022-08-21T00:51:08;17.00;1.00
38131;DHT22;23947;51.894;4.622;2022-08-21T00:53:38;17.00;1.00
38131;DHT22;23947;51.894;4.622;2022-08-21T00:56:05;17.00;1.00
38131;DHT22;23947;51.894;4.622;2022-08-21T00:58:32;17.00;1.00
38131;DHT22;23947;51.894;4.622;2022-08-21T01:01:02;17.00;1.00
38131;DHT22;23947;51.894;4.622;2022-08-21T01:03:28;17.00;1.00
38131;DHT22;23947;51.894;4.622;2022-08-21T01:05:54;17.00;1.00
38131;DHT22;23947;51.894;4.622;2022-08-21T01:08:21;16.90;1.00
38131;DHT22;23947;51.894;4.622;2022-08-21T01:10:49;16.90;1.00
38131;DHT22;23947;51.894;4.622;2022-08-21T01:13:17;16.80;1.00
38131;DHT22;23947;51.894;4.622;2022-08-21T01:15:45;16.90;1.00
38131;DHT22;23947;51.894;4.622;2022-08-21T01:18:13;16.90;1.00
38131;DHT22;23947;51.894;4.622;2022-08-21T01:20:45;16.80;1.00
38131;DHT22;23947;51.894;4.622;2022-08-21T01:23:11;16.80;1.00
38131;DHT22;23947;51.894;4.622;2022-08-21T01:25:37;16.90;1.00
38131;DHT22;23947;51.894;4.622;2022-08-21T01:28:12;16.90;1.00
38131;DHT22;23947;51.894;4.622;2022-08-21T01:30:39;16.80;1.00
38131;DHT22;23947;51.894;4.622;2022-08-21T01:33:05;16.80;1.00
38131;DHT22;23947;51.894;4.622;2022-08-21T01:35:31;16.80;1.00
38131;DHT22;23947;51.894;4.622;2022-08-21T01:37:57;16.80;1.00
38131;DHT22;23947;51.894;4.622;2022-08-21T01:40:22;16.80;1.00
38131;DHT22;23947;51.894;4.622;2022-08-21T01:42:48;16.80;1.00
38131;DHT22;23947;51.894;4.622;2022-08-21T01:45:15;16.80;1.00
38131;DHT22;23947;51.894;4.622;2022-08-21T01:47:42;16.80;1.00
38131;DHT22;23947;51.894;4.622;2022-08-21T01:50:13;16.80;1.00
38131;DHT22;23947;51.894;4.622;2022-08-21T01:52:39;16.80;1.00
38131;DHT22;23947;51.894;4.622;2022-08-21T01:55:08;16.80;1.00
38131;DHT22;23947;51.894;4.622;2022-08-21T01:57:34;16.80;1.00
38131;DHT22;23947;51.894;4.622;2022-08-21T02:00:00;16.80;1.00
38131;DHT22;23947;51.894;4.622;2022-08-21T02:02:26;16.80;1.00
38131;DHT22;23947;51.894;4.622;2022-08-21T02:04:52;16.80;1.00
38131;DHT22;23947;51.894;4.622;2022-08-21T02:07:18;16.80;1.00
38131;DHT22;23947;51.894;4.622;2022-08-21T02:09:44;16.70;1.00
38131;DHT22;23947;51.894;4.622;2022-08-21T02:12:10;16.80;1.00
38131;DHT22;23947;51.894;4.622;2022-08-21T02:14:36;16.80;1.00
38131;DHT22;23947;51.894;4.622;2022-08-21T02:17:02;16.70;1.00
38131;DHT22;23947;51.894;4.622;2022-08-21T02:19:28;16.70;1.00
38131;DHT22;23947;51.894;4.622;2022-08-21T02:21:54;16.60;1.00
38131;DHT22;23947;51.894;4.622;2022-08-21T02:24:20;16.60;1.00
38131;DHT22;23947;51.894;4.622;2022-08-21T02:26:46;16.50;1.00
38131;DHT22;23947;51.894;4.622;2022-08-21T02:29:12;16.50;1.00
38131;DHT22;23947;51.894;4.622;2022-08-21T02:31:37;16.50;1.00
38131;DHT22;23947;51.894;4.622;2022-08-21T02:34:03;16.50;1.00
38131;DHT22;23947;51.894;4.622;2022-08-21T02:36:29;16.50;1.00
38131;DHT22;23947;51.894;4.622;2022-08-21T02:38:54;16.40;1.00
38131;DHT22;23947;51.894;4.622;2022-08-21T02:41:22;16.40;1.00
38131;DHT22;23947;51.894;4.622;2022-08-21T02:43:48;16.40;1.00
38131;DHT22;23947;51.894;4.622;2022-08-21T02:46:18;16.30;1.00
38131;DHT22;23947;51.894;4.622;2022-08-21T02:48:45;16.30;1.00
38131;DHT22;23947;51.894;4.622;2022-08-21T02:51:18;16.40;1.00
38131;DHT22;23947;51.894;4.622;2022-08-21T02:53:46;16.40;1.00
38131;DHT22;23947;51.894;4.622;2022-08-21T02:56:13;16.30;1.00
38131;DHT22;23947;51.894;4.622;2022-08-21T02:58:44;16.30;1.00
38131;DHT22;23947;51.894;4.622;2022-08-21T03:01:11;16.20;1.00
38131;DHT22;23947;51.894;4.622;2022-08-21T03:03:38;16.20;1.00
38131;DHT22;23947;51.894;4.622;2022-08-21T03:06:05;16.20;1.00
38131;DHT22;23947;51.894;4.622;2022-08-21T03:08:31;16.20;1.00
38131;DHT22;23947;51.894;4.622;2022-08-21T03:10:57;16.20;1.00
38131;DHT22;23947;51.894;4.622;2022-08-21T03:13:25;16.10;1.00
38131;DHT22;23947;51.894;4.622;2022-08-21T03:15:50;16.10;1.00
38131;DHT22;23947;51.894;4.622;2022-08-21T03:18:17;16.10;1.00
38131;DHT22;23947;51.894;4.622;2022-08-21T03:20:43;16.10;1.00
38131;DHT22;23947;51.894;4.622;2022-08-21T03:23:10;16.10;1.00
38131;DHT22;23947;51.894;4.622;2022-08-21T03:25:37;16.20;1.00
38131;DHT22;23947;51.894;4.622;2022-08-21T03:28:05;16.20;1.00
38131;DHT22;23947;51.894;4.622;2022-08-21T03:30:31;16.10;1.00
38131;DHT22;23947;51.894;4.622;2022-08-21T03:33:00;16.10;1.00
38131;DHT22;23947;51.894;4.622;2022-08-21T03:35:27;16.00;1.00
38131;DHT22;23947;51.894;4.622;2022-08-21T03:37:53;16.00;1.00
38131;DHT22;23947;51.894;4.622;2022-08-21T03:40:21;16.00;1.00
38131;DHT22;23947;51.894;4.622;2022-08-21T03:42:47;16.00;1.00
38131;DHT22;23947;51.894;4.622;2022-08-21T03:45:15;16.00;1.00
38131;DHT22;23947;51.894;4.622;2022-08-21T03:47:59;16.00;1.00
38131;DHT22;23947;51.894;4.622;2022-08-21T03:50:28;16.00;1.00
38131;DHT22;23947;51.894;4.622;2022-08-21T03:52:54;16.00;1.00
38131;DHT22;23947;51.894;4.622;2022-08-21T03:55:20;15.90;1.00
38131;DHT22;23947;51.894;4.622;2022-08-21T03:57:46;15.90;1.00
38131;DHT22;23947;51.894;4.622;2022-08-21T04:00:14;15.90;1.00
38131;DHT22;23947;51.894;4.622;2022-08-21T04:02:41;15.90;1.00
38131;DHT22;23947;51.894;4.622;2022-08-21T04:05:07;15.90;1.00
38131;DHT22;23947;51.894;4.622;2022-08-21T04:07:33;15.90;1.00
38131;DHT22;23947;51.894;4.622;2022-08-21T04:09:59;15.90;1.00
38131;DHT22;23947;51.894;4.622;2022-08-21T04:12:25;15.80;1.00
38131;DHT22;23947;51.894;4.622;2022-08-21T04:14:50;15.80;1.00
38131;DHT22;23947;51.894;4.622;2022-08-21T04:17:17;15.80;1.00
38131;DHT22;23947;51.894;4.622;2022-08-21T04:19:43;15.80;1.00
38131;DHT22;23947;51.894;4.622;2022-08-21T04:22:09;15.80;1.00
38131;DHT22;23947;51.894;4.622;2022-08-21T04:24:35;15.80;1.00
38131;DHT22;23947;51.894;4.622;2022-08-21T04:27:00;15.80;1.00
38131;DHT22;23947;51.894;4.622;2022-08-21T04:29:26;15.80;1.00
38131;DHT22;23947;51.894;4.622;2022-08-21T04:31:52;15.80;1.00
38131;DHT22;23947;51.894;4.622;2022-08-21T04:34:18;15.80;1.00
38131;DHT22;23947;51.894;4.622;2022-08-21T04:36:44;15.80;1.00
38131;DHT22;23947;51.894;4.622;2022-08-21T04:39:09;15.80;1.00
38131;DHT22;23947;51.894;4.622;2022-08-21T04:41:35;15.80;1.00
38131;DHT22;23947;51.894;4.622;2022-08-21T04:44:02;15.80;1.00
38131;DHT22;23947;51.894;4.622;2022-08-21T04:46:28;15.80;1.00
38131;DHT22;23947;51.894;4.622;2022-08-21T04:48:55;15.80;1.00
38131;DHT22;23947;51.894;4.622;2022-08-21T04:51:32;15.80;1.00
38131;DHT22;23947;51.894;4.622;2022-08-21T04:53:59;15.80;1.00
38131;DHT22;23947;51.894;4.622;2022-08-21T04:56:36;15.80;1.00
38131;DHT22;23947;51.894;4.622;2022-08-21T04:59:12;15.80;1.00
38131;DHT22;23947;51.894;4.622;2022-08-21T05:01:39;15.80;1.00
38131;DHT22;23947;51.894;4.622;2022-08-21T05:04:08;15.70;1.00
38131;DHT22;23947;51.894;4.622;2022-08-21T05:06:37;15.70;1.00
38131;DHT22;23947;51.894;4.622;2022-08-21T05:09:03;15.70;1.00
38131;DHT22;23947;51.894;4.622;2022-08-21T05:11:30;15.60;1.00
38131;DHT22;23947;51.894;4.622;2022-08-21T05:13:56;15.70;1.00
38131;DHT22;23947;51.894;4.622;2022-08-21T05:16:22;15.60;1.00
38131;DHT22;23947;51.894;4.622;2022-08-21T05:18:47;15.70;1.00
38131;DHT22;23947;51.894;4.622;2022-08-21T05:21:13;15.70;1.00
38131;DHT22;23947;51.894;4.622;2022-08-21T05:23:38;15.70;1.00
38131;DHT22;23947;51.894;4.622;2022-08-21T05:26:04;15.70;1.00
38131;DHT22;23947;51.894;4.622;2022-08-21T05:28:33;15.70;1.00
38131;DHT22;23947;51.894;4.622;2022-08-21T05:30:58;15.70;1.00
38131;DHT22;23947;51.894;4.622;2022-08-21T05:33:24;15.80;1.00
38131;DHT22;23947;51.894;4.622;2022-08-21T05:35:51;15.80;1.00
38131;DHT22;23947;51.894;4.622;2022-08-21T05:38:18;15.80;1.00
38131;DHT22;23947;51.894;4.622;2022-08-21T05:40:44;15.80;1.00
38131;DHT22;23947;51.894;4.622;2022-08-21T05:43:09;15.80;1.00
38131;DHT22;23947;51.894;4.622;2022-08-21T05:45:35;15.80;1.00
38131;DHT22;23947;51.894;4.622;2022-08-21T05:48:12;15.90;1.00
38131;DHT22;23947;51.894;4.622;2022-08-21T05:50:38;15.80;1.00
38131;DHT22;23947;51.894;4.622;2022-08-21T05:53:11;15.90;1.00
38131;DHT22;23947;51.894;4.622;2022-08-21T05:55:37;15.90;1.00
38131;DHT22;23947;51.894;4.622;2022-08-21T05:58:03;15.90;1.00
38131;DHT22;23947;51.894;4.622;2022-08-21T06:00:29;16.00;1.00
38131;DHT22;23947;51.894;4.622;2022-08-21T06:02:55;16.00;1.00
38131;DHT22;23947;51.894;4.622;2022-08-21T06:05:22;16.10;1.00
38131;DHT22;23947;51.894;4.622;2022-08-21T06:07:47;16.10;1.00
38131;DHT22;23947;51.894;4.622;2022-08-21T06:10:13;16.20;1.00
38131;DHT22;23947;51.894;4.622;2022-08-21T06:12:38;16.20;1.00
38131;DHT22;23947;51.894;4.622;2022-08-21T06:15:05;16.30;1.00
38131;DHT22;23947;51.894;4.622;2022-08-21T06:17:31;16.30;1.00
38131;DHT22;23947;51.894;4.622;2022-08-21T06:19:56;16.40;1.00
38131;DHT22;23947;51.894;4.622;2022-08-21T06:22:22;16.40;1.00
38131;DHT22;23947;51.894;4.622;2022-08-21T06:24:47;16.50;1.00
38131;DHT22;23947;51.894;4.622;2022-08-21T06:27:13;16.50;1.00
38131;DHT22;23947;51.894;4.622;2022-08-21T06:29:40;16.60;1.00
38131;DHT22;23947;51.894;4.622;2022-08-21T06:32:06;16.70;1.00
38131;DHT22;23947;51.894;4.622;2022-08-21T06:34:40;16.70;1.00
38131;DHT22;23947;51.894;4.622;2022-08-21T06:37:06;16.80;1.00
38131;DHT22;23947;51.894;4.622;2022-08-21T06:39:32;16.80;1.00
38131;DHT22;23947;51.894;4.622;2022-08-21T06:41:58;16.90;1.00
38131;DHT22;23947;51.894;4.622;2022-08-21T06:44:25;17.00;1.00
38131;DHT22;23947;51.894;4.622;2022-08-21T06:46:50;17.00;1.00
38131;DHT22;23947;51.894;4.622;2022-08-21T06:49:16;17.10;1.00
38131;DHT22;23947;51.894;4.622;2022-08-21T06:51:41;17.10;1.00
38131;DHT22;23947;51.894;4.622;2022-08-21T06:54:07;17.20;1.00
38131;DHT22;23947;51.894;4.622;2022-08-21T06:56:34;17.30;1.00
38131;DHT22;23947;51.894;4.622;2022-08-21T06:59:02;17.30;1.00
38131;DHT22;23947;51.894;4.622;2022-08-21T07:01:28;17.40;1.00
38131;DHT22;23947;51.894;4.622;2022-08-21T07:03:54;17.50;1.00
38131;DHT22;23947;51.894;4.622;2022-08-21T07:06:20;17.50;1.00
38131;DHT22;23947;51.894;4.622;2022-08-21T07:08:45;17.60;1.00
38131;DHT22;23947;51.894;4.622;2022-08-21T07:11:21;17.60;1.00
38131;DHT22;23947;51.894;4.622;2022-08-21T07:13:47;17.60;1.00
38131;DHT22;23947;51.894;4.622;2022-08-21T07:16:13;17.70;1.00
38131;DHT22;23947;51.894;4.622;2022-08-21T07:18:39;17.70;1.00
38131;DHT22;23947;51.894;4.622;2022-08-21T07:21:06;17.70;1.00
38131;DHT22;23947;51.894;4.622;2022-08-21T07:23:36;17.80;1.00
38131;DHT22;23947;51.894;4.622;2022-08-21T07:26:01;17.90;1.00
38131;DHT22;23947;51.894;4.622;2022-08-21T07:28:28;17.90;1.00
38131;DHT22;23947;51.894;4.622;2022-08-21T07:30:57;17.90;1.00
38131;DHT22;23947;51.894;4.622;2022-08-21T07:33:23;18.00;1.00
38131;DHT22;23947;51.894;4.622;2022-08-21T07:35:50;18.00;1.00
38131;DHT22;23947;51.894;4.622;2022-08-21T07:38:16;18.10;1.00
38131;DHT22;23947;51.894;4.622;2022-08-21T07:40:41;18.20;1.00
38131;DHT22;23947;51.894;4.622;2022-08-21T07:43:07;18.20;1.00
38131;DHT22;23947;51.894;4.622;2022-08-21T07:45:33;18.30;1.00
38131;DHT22;23947;51.894;4.622;2022-08-21T07:47:59;18.30;1.00
38131;DHT22;23947;51.894;4.622;2022-08-21T07:50:25;18.40;1.00
38131;DHT22;23947;51.894;4.622;2022-08-21T07:52:51;18.40;1.00
38131;DHT22;23947;51.894;4.622;2022-08-21T07:55:19;18.60;1.00
38131;DHT22;23947;51.894;4.622;2022-08-21T07:57:45;18.60;1.00
38131;DHT22;23947;51.894;4.622;2022-08-21T08:00:14;18.70;1.00
38131;DHT22;23947;51.894;4.622;2022-08-21T08:02:43;18.80;1.00
38131;DHT22;23947;51.894;4.622;2022-08-21T08:05:10;18.80;1.00
38131;DHT22;23947;51.894;4.622;2022-08-21T08:07:37;18.90;1.00
38131;DHT22;23947;51.894;4.622;2022-08-21T08:10:04;19.00;1.00
38131;DHT22;23947;51.894;4.622;2022-08-21T08:12:33;19.10;1.00
38131;DHT22;23947;51.894;4.622;2022-08-21T08:14:59;19.10;1.00
38131;DHT22;23947;51.894;4.622;2022-08-21T08:17:25;19.20;1.00
38131;DHT22;23947;51.894;4.622;2022-08-21T08:19:51;19.20;1.00
38131;DHT22;23947;51.894;4.622;2022-08-21T08:22:19;19.40;1.00
38131;DHT22;23947;51.894;4.622;2022-08-21T08:24:46;19.40;1.00
38131;DHT22;23947;51.894;4.622;2022-08-21T08:27:12;19.60;1.00
38131;DHT22;23947;51.894;4.622;2022-08-21T08:29:38;19.60;1.00
38131;DHT22;23947;51.894;4.622;2022-08-21T08:32:05;19.60;1.00
38131;DHT22;23947;51.894;4.622;2022-08-21T08:34:36;19.80;1.00
38131;DHT22;23947;51.894;4.622;2022-08-21T08:37:03;19.80;1.00
38131;DHT22;23947;51.894;4.622;2022-08-21T08:39:29;19.80;1.00
38131;DHT22;23947;51.894;4.622;2022-08-21T08:42:13;19.80;1.00
38131;DHT22;23947;51.894;4.622;2022-08-21T08:44:43;19.80;1.00
38131;DHT22;23947;51.894;4.622;2022-08-21T08:47:15;19.90;1.00
38131;DHT22;23947;51.894;4.622;2022-08-21T08:52:36;20.00;1.00
38131;DHT22;23947;51.894;4.622;2022-08-21T08:55:15;20.00;1.00
38131;DHT22;23947;51.894;4.622;2022-08-21T08:57:45;20.00;1.00
38131;DHT22;23947;51.894;4.622;2022-08-21T09:00:14;20.00;1.00
38131;DHT22;23947;51.894;4.622;2022-08-21T09:02:42;20.00;1.00
38131;DHT22;23947;51.894;4.622;2022-08-21T09:05:16;20.10;1.00
38131;DHT22;23947;51.894;4.622;2022-08-21T09:16:30;20.50;1.00
38131;DHT22;23947;51.894;4.622;2022-08-21T09:24:33;21.00;1.00
38131;DHT22;23947;51.894;4.622;2022-08-21T09:27:11;20.90;1.00
38131;DHT22;23947;51.894;4.622;2022-08-21T09:29:42;20.80;1.00
38131;DHT22;23947;51.894;4.622;2022-08-21T09:32:17;20.80;1.00
38131;DHT22;23947;51.894;4.622;2022-08-21T09:37:23;21.10;1.00
38131;DHT22;23947;51.894;4.622;2022-08-21T09:39:49;21.30;1.00
38131;DHT22;23947;51.894;4.622;2022-08-21T09:42:24;21.50;1.00
38131;DHT22;23947;51.894;4.622;2022-08-21T09:45:17;21.70;1.00
38131;DHT22;23947;51.894;4.622;2022-08-21T09:47:44;21.80;1.00
38131;DHT22;23947;51.894;4.622;2022-08-21T09:50:17;21.90;1.00
38131;DHT22;23947;51.894;4.622;2022-08-21T09:52:50;22.00;1.00
38131;DHT22;23947;51.894;4.622;2022-08-21T09:55:31;22.10;1.00
38131;DHT22;23947;51.894;4.622;2022-08-21T09:58:17;21.90;1.00
38131;DHT22;23947;51.894;4.622;2022-08-21T10:03:34;21.70;1.00
38131;DHT22;23947;51.894;4.622;2022-08-21T10:06:06;21.60;1.00
38131;DHT22;23947;51.894;4.622;2022-08-21T10:08:36;21.80;1.00
38131;DHT22;23947;51.894;4.622;2022-08-21T10:11:06;22.00;1.00
38131;DHT22;23947;51.894;4.622;2022-08-21T10:21:06;22.60;1.00
38131;DHT22;23947;51.894;4.622;2022-08-21T10:29:39;22.40;1.00
38131;DHT22;23947;51.894;4.622;2022-08-21T10:32:27;22.30;1.00
38131;DHT22;23947;51.894;4.622;2022-08-21T10:51:10;22.50;1.00
38131;DHT22;23947;51.894;4.622;2022-08-21T10:53:54;22.80;1.00
38131;DHT22;23947;51.894;4.622;2022-08-21T10:56:27;23.10;1.00
38131;DHT22;23947;51.894;4.622;2022-08-21T11:06:38;23.30;1.00
38131;DHT22;23947;51.894;4.622;2022-08-21T11:09:13;23.00;1.00
38131;DHT22;23947;51.894;4.622;2022-08-21T11:11:54;22.90;1.00
38131;DHT22;23947;51.894;4.622;2022-08-21T11:14:47;23.20;1.00
38131;DHT22;23947;51.894;4.622;2022-08-21T11:17:18;23.40;1.00
38131;DHT22;23947;51.894;4.622;2022-08-21T11:20:02;23.50;1.00
38131;DHT22;23947;51.894;4.622;2022-08-21T11:22:41;23.50;1.00
38131;DHT22;23947;51.894;4.622;2022-08-21T11:25:32;23.60;1.00
38131;DHT22;23947;51.894;4.622;2022-08-21T11:28:05;24.00;1.00
38131;DHT22;23947;51.894;4.622;2022-08-21T11:36:14;24.20;1.00
38131;DHT22;23947;51.894;4.622;2022-08-21T11:38:42;24.00;1.00
38131;DHT22;23947;51.894;4.622;2022-08-21T11:49:39;24.50;1.00
38131;DHT22;23947;51.894;4.622;2022-08-21T11:52:31;24.00;1.00
38131;DHT22;23947;51.894;4.622;2022-08-21T11:55:07;24.00;1.00
38131;DHT22;23947;51.894;4.622;2022-08-21T11:57:36;24.10;1.00
38131;DHT22;23947;51.894;4.622;2022-08-21T12:00:13;24.10;1.00
38131;DHT22;23947;51.894;4.622;2022-08-21T12:02:52;23.90;1.00
38131;DHT22;23947;51.894;4.622;2022-08-21T12:05:30;23.90;1.00
38131;DHT22;23947;51.894;4.622;2022-08-21T12:08:03;23.90;1.00
38131;DHT22;23947;51.894;4.622;2022-08-21T12:10:41;24.10;1.00
38131;DHT22;23947;51.894;4.622;2022-08-21T12:13:11;24.30;1.00
38131;DHT22;23947;51.894;4.622;2022-08-21T12:15:39;24.40;1.00
38131;DHT22;23947;51.894;4.622;2022-08-21T12:18:19;24.30;1.00
38131;DHT22;23947;51.894;4.622;2022-08-21T12:23:43;24.20;1.00
38131;DHT22;23947;51.894;4.622;2022-08-21T12:26:34;24.50;1.00
38131;DHT22;23947;51.894;4.622;2022-08-21T12:29:20;24.50;1.00
38131;DHT22;23947;51.894;4.622;2022-08-21T12:32:03;24.70;1.00
38131;DHT22;23947;51.894;4.622;2022-08-21T12:35:13;24.80;1.00
38131;DHT22;23947;51.894;4.622;2022-08-21T12:37:52;24.60;1.00
38131;DHT22;23947;51.894;4.622;2022-08-21T12:40:27;24.40;1.00
38131;DHT22;23947;51.894;4.622;2022-08-21T12:42:57;24.30;1.00
38131;DHT22;23947;51.894;4.622;2022-08-21T12:45:34;24.30;1.00
38131;DHT22;23947;51.894;4.622;2022-08-21T12:50:52;24.10;1.00
38131;DHT22;23947;51.894;4.622;2022-08-21T12:53:41;24.00;1.00
38131;DHT22;23947;51.894;4.622;2022-08-21T12:56:13;24.10;1.00
38131;DHT22;23947;51.894;4.622;2022-08-21T12:58:47;24.30;1.00
38131;DHT22;23947;51.894;4.622;2022-08-21T13:01:30;24.50;1.00
38131;DHT22;23947;51.894;4.622;2022-08-21T13:03:59;24.70;1.00
38131;DHT22;23947;51.894;4.622;2022-08-21T13:06:28;24.50;1.00
38131;DHT22;23947;51.894;4.622;2022-08-21T13:09:10;24.20;1.00
38131;DHT22;23947;51.894;4.622;2022-08-21T13:11:37;24.00;1.00
38131;DHT22;23947;51.894;4.622;2022-08-21T13:14:04;23.80;1.00
38131;DHT22;23947;51.894;4.622;2022-08-21T13:16:30;23.90;1.00
38131;DHT22;23947;51.894;4.622;2022-08-21T13:18:58;24.20;1.00
38131;DHT22;23947;51.894;4.622;2022-08-21T13:21:29;24.20;1.00
38131;DHT22;23947;51.894;4.622;2022-08-21T13:24:17;24.50;1.00
38131;DHT22;23947;51.894;4.622;2022-08-21T13:26:43;24.50;1.00
38131;DHT22;23947;51.894;4.622;2022-08-21T13:29:15;24.10;1.00
38131;DHT22;23947;51.894;4.622;2022-08-21T13:31:53;23.80;1.00
38131;DHT22;23947;51.894;4.622;2022-08-21T13:34:24;23.80;1.00
38131;DHT22;23947;51.894;4.622;2022-08-21T13:36:54;23.90;1.00
38131;DHT22;23947;51.894;4.622;2022-08-21T13:39:21;23.90;1.00
38131;DHT22;23947;51.894;4.622;2022-08-21T13:41:50;23.70;1.00
38131;DHT22;23947;51.894;4.622;2022-08-21T13:44:41;23.50;1.00
38131;DHT22;23947;51.894;4.622;2022-08-21T13:47:10;23.70;1.00
38131;DHT22;23947;51.894;4.622;2022-08-21T13:49:39;23.60;1.00
38131;DHT22;23947;51.894;4.622;2022-08-21T13:52:21;23.70;1.00
38131;DHT22;23947;51.894;4.622;2022-08-21T13:55:07;23.50;1.00
38131;DHT22;23947;51.894;4.622;2022-08-21T13:57:34;23.10;1.00
38131;DHT22;23947;51.894;4.622;2022-08-21T14:00:24;23.10;1.00
38131;DHT22;23947;51.894;4.622;2022-08-21T14:02:52;22.90;1.00
38131;DHT22;23947;51.894;4.622;2022-08-21T14:05:26;22.90;1.00
38131;DHT22;23947;51.894;4.622;2022-08-21T14:08:04;22.90;1.00
38131;DHT22;23947;51.894;4.622;2022-08-21T14:10:30;22.90;1.00
38131;DHT22;23947;51.894;4.622;2022-08-21T14:13:02;22.80;1.00
38131;DHT22;23947;51.894;4.622;2022-08-21T14:15:32;22.70;1.00
38131;DHT22;23947;51.894;4.622;2022-08-21T14:18:27;22.70;1.00
38131;DHT22;23947;51.894;4.622;2022-08-21T14:21:08;22.70;1.00
38131;DHT22;23947;51.894;4.622;2022-08-21T14:23:35;22.60;1.00
38131;DHT22;23947;51.894;4.622;2022-08-21T14:26:09;22.70;1.00
38131;DHT22;23947;51.894;4.622;2022-08-21T14:28:40;22.60;1.00
38131;DHT22;23947;51.894;4.622;2022-08-21T14:31:20;22.60;1.00
38131;DHT22;23947;51.894;4.622;2022-08-21T14:33:48;22.80;1.00
38131;DHT22;23947;51.894;4.622;2022-08-21T14:36:14;22.90;1.00
38131;DHT22;23947;51.894;4.622;2022-08-21T14:38:40;23.00;1.00
38131;DHT22;23947;51.894;4.622;2022-08-21T14:41:19;22.70;1.00
38131;DHT22;23947;51.894;4.622;2022-08-21T14:43:47;22.70;1.00
38131;DHT22;23947;51.894;4.622;2022-08-21T14:46:18;22.90;1.00
38131;DHT22;23947;51.894;4.622;2022-08-21T14:48:45;23.00;1.00
38131;DHT22;23947;51.894;4.622;2022-08-21T14:51:12;23.10;1.00
38131;DHT22;23947;51.894;4.622;2022-08-21T14:53:38;23.30;1.00
38131;DHT22;23947;51.894;4.622;2022-08-21T14:56:04;23.50;1.00
38131;DHT22;23947;51.894;4.622;2022-08-21T14:58:30;23.50;1.00
38131;DHT22;23947;51.894;4.622;2022-08-21T15:00:56;23.50;1.00
38131;DHT22;23947;51.894;4.622;2022-08-21T15:03:24;23.50;1.00
38131;DHT22;23947;51.894;4.622;2022-08-21T15:05:50;23.60;1.00
38131;DHT22;23947;51.894;4.622;2022-08-21T15:08:16;23.50;1.00
38131;DHT22;23947;51.894;4.622;2022-08-21T15:10:42;23.50;1.00
38131;DHT22;23947;51.894;4.622;2022-08-21T15:13:08;23.60;1.00
38131;DHT22;23947;51.894;4.622;2022-08-21T15:15:39;23.60;1.00
38131;DHT22;23947;51.894;4.622;2022-08-21T15:18:05;23.50;1.00
38131;DHT22;23947;51.894;4.622;2022-08-21T15:20:31;23.50;1.00
38131;DHT22;23947;51.894;4.622;2022-08-21T15:22:57;23.60;1.00
38131;DHT22;23947;51.894;4.622;2022-08-21T15:25:24;23.50;1.00
38131;DHT22;23947;51.894;4.622;2022-08-21T15:27:50;23.60;1.00
38131;DHT22;23947;51.894;4.622;2022-08-21T15:30:15;23.70;1.00
38131;DHT22;23947;51.894;4.622;2022-08-21T15:32:41;23.80;1.00
38131;DHT22;23947;51.894;4.622;2022-08-21T15:35:08;23.90;1.00
38131;DHT22;23947;51.894;4.622;2022-08-21T15:37:34;23.90;1.00
38131;DHT22;23947;51.894;4.622;2022-08-21T15:40:00;23.70;1.00
38131;DHT22;23947;51.894;4.622;2022-08-21T15:42:26;23.60;1.00
38131;DHT22;23947;51.894;4.622;2022-08-21T15:44:54;23.50;1.00
38131;DHT22;23947;51.894;4.622;2022-08-21T15:47:34;23.30;1.00
38131;DHT22;23947;51.894;4.622;2022-08-21T15:50:00;23.10;1.00
38131;DHT22;23947;51.894;4.622;2022-08-21T15:52:26;23.20;1.00
38131;DHT22;23947;51.894;4.622;2022-08-21T15:54:52;23.20;1.00
38131;DHT22;23947;51.894;4.622;2022-08-21T15:57:21;23.20;1.00
38131;DHT22;23947;51.894;4.622;2022-08-21T15:59:50;23.30;1.00
38131;DHT22;23947;51.894;4.622;2022-08-21T16:02:28;23.20;1.00
38131;DHT22;23947;51.894;4.622;2022-08-21T16:04:54;23.10;1.00
38131;DHT22;23947;51.894;4.622;2022-08-21T16:07:20;23.10;1.00
38131;DHT22;23947;51.894;4.622;2022-08-21T16:09:46;23.10;1.00
38131;DHT22;23947;51.894;4.622;2022-08-21T16:12:21;23.00;1.00
38131;DHT22;23947;51.894;4.622;2022-08-21T16:14:47;22.90;1.00
38131;DHT22;23947;51.894;4.622;2022-08-21T16:17:15;22.90;1.00
38131;DHT22;23947;51.894;4.622;2022-08-21T16:19:40;22.80;1.00
38131;DHT22;23947;51.894;4.622;2022-08-21T16:22:06;22.60;1.00
38131;DHT22;23947;51.894;4.622;2022-08-21T16:24:32;22.50;1.00
38131;DHT22;23947;51.894;4.622;2022-08-21T16:26:58;22.50;1.00
38131;DHT22;23947;51.894;4.622;2022-08-21T16:29:26;22.50;1.00
38131;DHT22;23947;51.894;4.622;2022-08-21T16:31:52;22.50;1.00
38131;DHT22;23947;51.894;4.622;2022-08-21T16:34:18;22.50;1.00
38131;DHT22;23947;51.894;4.622;2022-08-21T16:36:45;22.40;1.00
38131;DHT22;23947;51.894;4.622;2022-08-21T16:39:11;22.40;1.00
38131;DHT22;23947;51.894;4.622;2022-08-21T16:41:40;22.40;1.00
38131;DHT22;23947;51.894;4.622;2022-08-21T16:44:06;22.50;1.00
38131;DHT22;23947;51.894;4.622;2022-08-21T16:46:35;22.40;1.00
38131;DHT22;23947;51.894;4.622;2022-08-21T16:49:02;22.40;1.00
38131;DHT22;23947;51.894;4.622;2022-08-21T16:51:28;22.30;1.00
38131;DHT22;23947;51.894;4.622;2022-08-21T16:53:56;22.20;1.00
38131;DHT22;23947;51.894;4.622;2022-08-21T16:56:22;22.20;1.00
38131;DHT22;23947;51.894;4.622;2022-08-21T16:58:49;22.20;1.00
38131;DHT22;23947;51.894;4.622;2022-08-21T17:01:17;22.20;1.00
38131;DHT22;23947;51.894;4.622;2022-08-21T17:03:44;22.20;1.00
38131;DHT22;23947;51.894;4.622;2022-08-21T17:06:13;22.20;1.00
38131;DHT22;23947;51.894;4.622;2022-08-21T17:08:39;22.20;1.00
38131;DHT22;23947;51.894;4.622;2022-08-21T17:11:06;22.10;1.00
38131;DHT22;23947;51.894;4.622;2022-08-21T17:13:33;22.10;1.00
38131;DHT22;23947;51.894;4.622;2022-08-21T17:15:59;22.10;1.00
38131;DHT22;23947;51.894;4.622;2022-08-21T17:18:25;22.10;1.00